createdAt,value
2023-04-14T00:00:28.601Z,92.01
2023-04-14T00:05:55.934Z,91.52
2023-04-14T00:11:01.632Z,91.57
2023-04-14T00:19:59.732Z,92.30
2023-04-14T00:25:06.556Z,92.37
2023-04-14T00:30:14.258Z,92.38
2023-04-14T00:35:19.924Z,92.37
2023-04-14T00:40:25.793Z,93.49
2023-04-14T00:45:31.423Z,96.40
2023-04-14T00:50:37.011Z,97.09
2023-04-14T00:55:43.342Z,96.90
2023-04-14T01:00:53.965Z,95.69
2023-04-14T01:05:59.452Z,94.58
2023-04-14T01:11:14.214Z,94.21
2023-04-14T01:16:28.809Z,94.92
2023-04-14T01:21:46.516Z,95.59
2023-04-14T01:27:03.283Z,94.80
2023-04-14T01:32:12.912Z,94.33
2023-04-14T01:37:25.019Z,94.31
2023-04-14T01:42:33.989Z,94.96
2023-04-14T01:47:41.103Z,96.28
2023-04-14T01:52:52.900Z,98.03
2023-04-14T01:57:59.333Z,97.00
2023-04-14T02:03:06.669Z,95.94
2023-04-14T02:08:14.242Z,97.37
2023-04-14T02:13:21.556Z,98.57
2023-04-14T02:18:28.824Z,97.34
2023-04-14T02:23:34.401Z,96.65
2023-04-14T02:28:46.728Z,97.19
2023-04-14T02:33:55.946Z,98.22
2023-04-14T02:39:06.647Z,98.04
2023-04-14T02:44:18.656Z,97.62
2023-04-14T02:49:25.523Z,97.41
2023-04-14T02:54:34.439Z,98.55
2023-04-14T02:59:42.721Z,97.95
2023-04-14T03:04:50.082Z,99.85
2023-04-14T03:10:03.042Z,100.00
2023-04-14T03:15:10.083Z,100.00
2023-04-14T03:20:20.224Z,100.00
2023-04-14T03:25:28.490Z,100.00
2023-04-14T03:30:36.770Z,100.00
2023-04-14T03:35:44.830Z,100.00
2023-04-14T03:40:51.401Z,100.00
2023-04-14T03:45:59.647Z,100.00
2023-04-14T03:51:09.085Z,100.00
2023-04-14T03:56:16.118Z,100.00
2023-04-14T04:01:25.962Z,100.00
2023-04-14T04:06:32.938Z,100.00
2023-04-14T04:11:39.860Z,100.00
2023-04-14T04:16:49.926Z,100.00
2023-04-14T04:21:59.940Z,100.00
2023-04-14T04:27:11.958Z,100.00
2023-04-14T04:32:23.840Z,100.00
2023-04-14T04:37:30.053Z,100.00
2023-04-14T04:42:40.293Z,100.00
2023-04-14T04:47:47.177Z,100.00
2023-04-14T04:52:52.848Z,100.00
2023-04-14T04:57:58.615Z,100.00
2023-04-14T05:03:04.340Z,100.00
2023-04-14T05:08:09.829Z,100.00
2023-04-14T05:13:16.082Z,100.00
2023-04-14T05:18:21.604Z,100.00
2023-04-14T05:23:27.232Z,100.00
2023-04-14T05:28:32.891Z,100.00
2023-04-14T05:33:40.176Z,100.00
2023-04-14T05:38:46.497Z,100.00
2023-04-14T05:43:52.021Z,100.00
2023-04-14T05:48:58.140Z,100.00
2023-04-14T05:54:03.882Z,100.00
2023-04-14T05:59:09.473Z,100.00
2023-04-14T06:04:16.106Z,100.00
2023-04-14T06:09:22.337Z,100.00
2023-04-14T06:14:27.794Z,100.00
2023-04-14T06:19:33.465Z,100.00
2023-04-14T06:24:39.019Z,100.00
2023-04-14T06:29:44.616Z,100.00
2023-04-14T06:34:52.614Z,100.00
2023-04-14T06:39:59.954Z,100.00
2023-04-14T06:45:06.504Z,100.00
2023-04-14T06:50:12.617Z,100.00
2023-04-14T06:55:18.357Z,100.00
2023-04-14T07:00:24.743Z,98.06
2023-04-14T07:05:30.502Z,89.02
2023-04-14T07:10:35.950Z,82.75
2023-04-14T07:15:47.905Z,80.89
2023-04-14T07:20:54.262Z,75.71
2023-04-14T07:26:01.021Z,74.26
2023-04-14T07:31:10.779Z,72.29
2023-04-14T07:36:16.431Z,70.34
2023-04-14T07:41:22.244Z,68.01
2023-04-14T07:46:27.955Z,62.20
2023-04-14T07:51:33.654Z,57.23
2023-04-14T07:56:39.068Z,52.82
2023-04-14T08:01:45.029Z,49.92
2023-04-14T08:06:50.686Z,50.41
2023-04-14T08:11:57.357Z,50.80
2023-04-14T08:17:02.832Z,51.28
2023-04-14T08:22:08.438Z,48.48
2023-04-14T08:27:13.953Z,45.24
2023-04-14T08:32:19.709Z,42.70
2023-04-14T08:37:25.706Z,41.28
2023-04-14T08:42:31.259Z,38.81
2023-04-14T08:47:39.284Z,38.99
2023-04-14T08:52:48.930Z,38.93
2023-04-14T08:57:54.724Z,41.37
2023-04-14T09:03:00.814Z,43.33
2023-04-14T09:08:06.942Z,43.06
2023-04-14T09:13:15.484Z,43.02
2023-04-14T09:18:21.362Z,42.71
2023-04-14T09:23:26.985Z,44.96
2023-04-14T09:28:32.926Z,44.59
2023-04-14T09:33:44.251Z,42.24
2023-04-14T09:38:51.697Z,41.47
2023-04-14T09:44:07.147Z,42.67
2023-04-14T09:49:12.739Z,43.88
2023-04-14T09:54:25.748Z,45.12
2023-04-14T09:59:36.839Z,46.56
2023-04-14T10:04:42.510Z,43.81
2023-04-14T10:09:49.597Z,42.90
2023-04-14T10:14:55.137Z,41.64
2023-04-14T10:20:00.614Z,41.69
2023-04-14T10:25:09.133Z,43.49
2023-04-14T10:30:15.216Z,43.63
2023-04-14T10:35:21.863Z,42.86
2023-04-14T10:41:10.718Z,41.86
2023-04-14T10:46:18.034Z,43.08
2023-04-14T10:51:36.334Z,44.93
2023-04-14T10:56:42.260Z,47.27
2023-04-14T11:01:57.118Z,48.06
2023-04-14T11:07:10.041Z,48.25
2023-04-14T11:12:27.357Z,48.25
2023-04-14T11:17:37.398Z,48.72
2023-04-14T11:22:45.907Z,48.09
2023-04-14T11:27:52.148Z,47.33
2023-04-14T11:32:59.422Z,46.94
2023-04-14T11:38:09.381Z,46.02
2023-04-14T11:43:15.137Z,46.94
2023-04-14T11:48:21.773Z,45.96
2023-04-14T11:53:27.377Z,46.00
2023-04-14T11:58:34.060Z,46.21
2023-04-14T12:03:39.829Z,46.36
2023-04-14T12:08:51.160Z,45.13
2023-04-14T12:13:57.169Z,45.46
2023-04-14T12:19:03.612Z,45.60
2023-04-14T12:24:09.630Z,45.14
2023-04-14T12:29:15.231Z,45.71
2023-04-14T12:34:26.755Z,45.01
2023-04-14T12:39:32.249Z,44.19
2023-04-14T12:44:38.945Z,43.91
2023-04-14T12:49:45.086Z,44.20
2023-04-14T12:55:08.064Z,45.25
2023-04-14T13:00:17.775Z,46.49
2023-04-14T13:05:24.975Z,47.28
2023-04-14T13:10:30.379Z,48.66
2023-04-14T13:16:14.123Z,47.74
2023-04-14T13:21:04.072Z,47.27
2023-04-14T13:26:09.601Z,46.90
2023-04-14T13:31:18.331Z,46.77
2023-04-14T13:36:24.339Z,46.31
2023-04-14T13:41:30.475Z,46.50
2023-04-14T13:46:40.807Z,47.63
2023-04-14T13:51:47.683Z,46.86
2023-04-14T13:56:53.532Z,45.40
2023-04-14T14:01:59.158Z,45.61
2023-04-14T14:07:07.115Z,45.37
2023-04-14T14:12:13.604Z,45.03
2023-04-14T14:17:19.191Z,44.91
2023-04-14T14:22:24.597Z,44.50
2023-04-14T14:27:30.646Z,44.98
2023-04-14T14:32:36.577Z,45.29
2023-04-14T14:37:45.149Z,45.34
2023-04-14T14:42:53.513Z,45.32
2023-04-14T14:47:59.526Z,45.56
2023-04-14T14:53:05.313Z,46.76
2023-04-14T14:58:12.069Z,47.86
2023-04-14T15:03:17.927Z,48.05
2023-04-14T15:08:24.062Z,49.14
2023-04-14T15:13:30.106Z,49.37
2023-04-14T15:18:35.521Z,50.17
2023-04-14T15:23:43.754Z,51.16
2023-04-14T15:28:49.401Z,51.75
2023-04-14T15:33:55.066Z,52.51
2023-04-14T15:39:00.690Z,53.22
2023-04-14T15:44:06.383Z,54.32
2023-04-14T15:49:11.829Z,54.76
2023-04-14T15:54:17.304Z,55.01
2023-04-14T15:59:25.067Z,55.59
2023-04-14T16:04:30.998Z,56.37
2023-04-14T16:09:36.833Z,56.75
2023-04-14T16:14:43.284Z,56.54
2023-04-14T16:19:48.815Z,56.38
2023-04-14T16:24:54.468Z,57.08
2023-04-14T16:30:00.176Z,57.67
2023-04-14T16:35:06.415Z,58.48
2023-04-14T16:40:13.208Z,58.93
2023-04-14T16:45:19.233Z,59.55
2023-04-14T16:50:25.354Z,60.05
2023-04-14T16:55:31.451Z,60.77
2023-04-14T17:00:37.317Z,61.21
2023-04-14T17:05:43.539Z,62.15
2023-04-14T17:10:49.164Z,62.38
2023-04-14T17:16:02.473Z,63.13
2023-04-14T17:21:14.175Z,64.07
2023-04-14T17:26:19.636Z,64.97
2023-04-14T17:31:25.327Z,65.22
2023-04-14T17:36:31.133Z,65.99
2023-04-14T17:41:37.226Z,66.73
2023-04-14T17:46:43.137Z,67.44
2023-04-14T17:51:48.711Z,67.54
2023-04-14T17:56:54.257Z,67.82
2023-04-14T18:01:59.810Z,68.44
2023-04-14T18:07:06.433Z,68.78
2023-04-14T18:12:12.218Z,69.31
2023-04-14T18:17:18.534Z,69.75
2023-04-14T18:22:24.166Z,70.13
2023-04-14T18:32:38.577Z,70.75
2023-04-14T18:37:46.459Z,71.06
2023-04-14T18:42:54.158Z,71.02
2023-04-14T18:47:59.883Z,71.11
2023-04-14T18:53:05.838Z,71.12
2023-04-14T18:58:14.399Z,71.49
2023-04-14T19:03:20.681Z,71.47
2023-04-14T19:08:27.340Z,71.84
2023-04-14T19:13:33.107Z,71.64
2023-04-14T19:18:41.855Z,71.42
2023-04-14T19:23:47.588Z,71.71
2023-04-14T19:28:53.863Z,71.78
2023-04-14T19:33:59.242Z,71.68
2023-04-14T19:39:05.122Z,71.39
2023-04-14T19:44:12.156Z,71.36
2023-04-14T19:49:17.994Z,71.76
2023-04-14T19:54:23.465Z,71.84
2023-04-14T19:59:29.618Z,72.01
2023-04-14T20:04:35.150Z,72.14
2023-04-14T20:09:44.961Z,72.42
2023-04-14T20:14:50.747Z,72.51
2023-04-14T20:19:56.095Z,72.64
2023-04-14T20:25:01.767Z,72.61
2023-04-14T20:30:11.136Z,72.73
2023-04-14T20:35:16.794Z,73.12
2023-04-14T20:40:22.374Z,73.08
2023-04-14T20:45:27.818Z,73.23
2023-04-14T20:50:34.051Z,73.43
2023-04-14T20:55:41.192Z,73.47
2023-04-14T21:00:47.213Z,73.75
2023-04-14T21:05:52.705Z,73.78
2023-04-14T21:11:15.835Z,73.91
2023-04-14T21:16:25.933Z,74.55
2023-04-14T21:21:31.773Z,74.82
2023-04-14T21:26:37.367Z,75.25
2023-04-14T21:31:44.135Z,75.68
2023-04-14T21:36:49.833Z,75.99
2023-04-14T21:41:57.058Z,76.27
2023-04-14T21:47:02.893Z,76.61
2023-04-14T21:52:10.227Z,77.12
2023-04-14T21:57:15.812Z,77.20
2023-04-14T22:02:21.817Z,77.44
2023-04-14T22:07:27.355Z,78.13
2023-04-14T22:12:34.654Z,77.88
2023-04-14T22:17:41.274Z,78.35
2023-04-14T22:22:46.956Z,78.28
2023-04-14T22:27:52.504Z,78.42
2023-04-14T22:32:58.041Z,78.41
2023-04-14T22:38:03.676Z,78.31
2023-04-14T22:43:09.339Z,78.61
2023-04-14T22:48:15.288Z,78.50
2023-04-14T22:53:20.976Z,78.57
2023-04-14T22:58:27.263Z,78.49
2023-04-14T23:03:33.196Z,78.53
2023-04-14T23:08:38.834Z,78.50
2023-04-14T23:13:44.640Z,78.42
2023-04-14T23:18:52.302Z,78.44
2023-04-14T23:23:57.692Z,78.40
2023-04-14T23:29:03.401Z,78.62
2023-04-14T23:34:11.184Z,78.44
2023-04-14T23:39:17.596Z,78.40
2023-04-14T23:44:23.113Z,78.68
2023-04-14T23:49:34.849Z,78.44
2023-04-14T23:54:42.352Z,78.41
2023-04-14T23:59:47.979Z,78.31
